Latest Weather Observations for Friendly Beaches

IDT60801

Issued at 5:01 am EST Tuesday 4 August 2015 (issued every 30 minutes, with the page automatically refreshed every 10 minutes)

About weather observations | Map of weather stations | Latest weather observations for TAS | Other Formats
Station Details ID: 092114 Name: FRIENDLY BEACHES Lat: -42.00 Lon: 148.28 Height: 55.0 m
Data from the previous 72 hours. | See also: Recent months at Friendly Beaches
Date/Time
EST
Temp
°C
App
Temp
°C
Dew
Point
Rel
Hum
%
Delta-T
°C
Wind Press
QNH
hPa
Press
MSL
hPa
Rain
since 9 am
mm
Dir
 
Spd
km/h
Gust
km/h
Spd
kts
Gust
kts
04/05:00am 3.7 -0.9 -3.8 58 2.5 NNW 11 17 6 9 1014.6 1014.7 0.2
04/04:30am 3.8 -1.2 -3.9 57 2.6 NW 13 20 7 11 1014.6 1014.7 0.2
04/04:00am 3.7 -1.6 -4.0 57 2.6 WNW 15 24 8 13 1014.8 1014.9 0.2
04/03:30am 3.6 -0.9 -3.6 59 2.5 WNW 11 20 6 11 1015.0 1015.1 0.2
04/03:00am 3.7 -1.6 -3.6 59 2.5 WNW 15 22 8 12 1015.2 1015.3 0.2
04/02:30am 3.6 -0.8 -2.8 63 2.2 W 11 17 6 9 1015.7 1015.8 0.2
04/02:00am 3.7 -0.7 -2.7 63 2.2 W 11 19 6 10 1015.6 1015.7 0.2
04/01:30am 4.0 -0.8 -2.8 61 2.4 W 13 20 7 11 1015.9 1016.0 0.2
04/01:00am 3.8 -1.0 -2.2 65 2.1 WSW 13 20 7 11 1016.0 1016.1 0.2
04/12:30am 3.5 -1.2 -1.6 69 1.8 WSW 13 20 7 11 1016.2 1016.3 0.2
04/12:00am 3.7 -1.4 -1.6 68 1.9 WSW 15 22 8 12 1016.5 1016.6 0.2
 
Date/Time
EST
Temp
°C
App
Temp
°C
Dew
Point
Rel
Hum
%
Delta-T
°C
Wind Press
QNH
hPa
Press
MSL
hPa
Rain
since 9 am
mm
Dir
 
Spd
km/h
Gust
km/h
Spd
kts
Gust
kts
03/11:30pm 3.7 -0.9 -1.4 69 1.8 W 13 19 7 10 1016.6 1016.7 0.2
03/11:00pm 3.4 -1.2 -1.3 71 1.7 W 13 22 7 12 1016.4 1016.5 0.2
03/10:30pm 3.0 -0.5 -1.4 73 1.6 W 7 11 4 6 1016.4 1016.5 0.2
03/10:00pm 3.8 -1.6 -1.4 69 1.9 W 17 24 9 13 1016.1 1016.2 0.2
03/09:30pm 4.1 -0.9 -1.1 69 1.9 W 15 22 8 12 1015.9 1016.0 0.2
03/09:00pm 4.6 -1.1 -0.6 69 1.9 WSW 19 32 10 17 1015.7 1015.8 0.2
03/08:30pm 4.0 -0.8 0.0 75 1.5 W 15 24 8 13 1015.1 1015.2 0.2
03/08:00pm 4.2 -1.0 0.0 74 1.6 WSW 17 28 9 15 1014.5 1014.6 0.2
03/07:30pm 4.5 -0.3 0.1 73 1.7 WSW 15 22 8 12 1014.2 1014.3 0.2
03/07:00pm 4.9 -0.6 0.5 73 1.7 WSW 19 28 10 15 1013.7 1013.8 0.2
03/06:30pm 4.7 -2.1 0.7 75 1.5 WSW 26 39 14 21 1011.9 1012.0 0.2
03/06:00pm 5.3 -0.7 0.9 73 1.7 WSW 22 39 12 21 1011.3 1011.4 0.0
03/05:30pm 5.5 -1.8 0.3 69 2.0 WSW 28 48 15 26 1010.8 1010.9 0.0
03/05:00pm 5.7 -1.6 0.1 67 2.2 WSW 28 52 15 28 1009.6 1009.7 0.0
03/04:52pm 5.9 -1.4 -0.2 65 2.3 WSW 28 50 15 27 1009.3 1009.4 0.0
03/04:30pm 6.0 -0.5 0.3 67 2.2 WSW 24 39 13 21 1009.0 1009.1 0.0
03/04:00pm 6.7 0.2 0.4 64 2.5 WSW 24 52 13 28 1008.4 1008.4 0.0
03/03:30pm 7.0 0.5 0.2 62 2.7 WSW 24 48 13 26 1007.5 1007.5 0.0
03/03:00pm 6.7 -1.1 -0.5 60 2.8 WSW 30 52 16 28 1006.4 1006.4 0.0
03/02:30pm 7.3 0.0 -0.2 59 2.9 WSW 28 50 15 27 1005.4 1005.4 0.0
03/02:00pm 7.1 -0.3 -0.6 58 3.0 WSW 28 50 15 27 1004.9 1004.9 0.0
03/01:30pm 7.0 -0.4 -0.7 58 3.0 WSW 28 54 15 29 1003.9 1003.9 0.0
03/01:06pm 7.0 -0.5 -1.7 54 3.3 W 28 54 15 29 1003.5 1003.5 0.0
03/01:00pm 6.8 -0.7 -1.3 56 3.1 W 28 43 15 23 1003.5 1003.5 0.0
03/12:30pm 6.2 -1.0 -1.7 57 2.9 WSW 26 52 14 28 1003.8 1003.8 0.0
03/12:13pm 7.0 -0.6 -1.9 53 3.3 W 28 54 15 29 1003.3 1003.3 0.0
03/12:00pm 6.6 -0.2 -2.0 54 3.2 WSW 24 44 13 24 1003.0 1003.0 0.0
03/11:30am 6.7 -1.7 -2.4 52 3.3 WSW 32 52 17 28 1002.6 1002.6 0.0
03/11:09am 6.3 -1.4 -2.6 53 3.2 W 28 48 15 26 1002.4 1002.4 0.0
03/11:00am 6.3 -0.9 -2.3 54 3.2 W 26 50 14 27 1002.5 1002.5 0.0
03/10:30am 6.0 -2.5 -3.4 51 3.3 W 32 56 17 30 1001.5 1001.5 0.0
03/10:10am 5.7 -2.1 -3.4 52 3.2 W 28 59 15 32 1001.4 1001.4 0.0
03/10:00am 5.5 -1.0 -2.8 55 3.0 W 22 46 12 25 1001.1 1001.2 0.0
03/09:30am 5.1 -1.1 -3.2 55 2.9 W 20 32 11 17 1001.2 1001.3 0.0
03/09:00am 4.1 -1.5 -2.7 61 2.4 WSW 17 33 9 18 1001.5 1001.5 4.2
03/08:30am 3.4 -1.5 -3.0 63 2.2 W 13 24 7 13 1000.9 1001.0 4.2
03/08:00am 3.1 -3.5 -3.0 64 2.1 W 22 41 12 22 1000.2 1000.3 4.2
03/07:30am 2.6 -2.9 -2.3 70 1.7 W 17 33 9 18 999.8 999.9 4.2
03/07:00am 2.5 -1.8 -2.0 72 1.6 W 11 19 6 10 999.2 999.3 4.2
03/06:30am 2.5 -1.4 -1.7 74 1.5 W 9 20 5 11 998.5 998.6 4.2
03/06:00am 1.9 -1.8 -0.2 86 0.8 W 9 17 5 9 998.3 998.4 4.2
03/05:30am 2.4 -0.9 0.1 85 0.9 W 7 13 4 7 997.6 997.7 4.2
03/05:00am 3.0 -1.8 0.4 83 1.0 WNW 15 28 8 15 997.6 997.7 4.2
03/04:30am 2.9 -1.1 0.3 83 1.0 W 11 19 6 10 997.0 997.1 4.2
03/04:00am 3.0 -0.7 0.2 82 1.1 WNW 9 17 5 9 996.4 996.5 4.2
03/03:30am 3.4 -0.9 1.0 84 0.9 W 13 22 7 12 996.2 996.3 4.2
03/03:00am 3.4 -0.8 1.6 88 0.7 WNW 13 24 7 13 996.2 996.3 4.2
03/02:30am 3.4 -0.4 1.9 90 0.6 WNW 11 17 6 9 995.7 995.8 4.2
03/02:00am 4.0 0.2 2.0 87 0.8 WNW 11 19 6 10 995.7 995.8 4.2
03/01:30am 5.2 0.5 1.1 75 1.6 WNW 15 28 8 15 996.1 996.2 3.6
03/01:00am 4.9 0.2 0.7 74 1.6 WNW 15 28 8 15 995.4 995.5 3.6
03/12:30am 5.0 -0.1 0.8 74 1.6 WNW 17 35 9 19 995.5 995.6 3.6
03/12:00am 5.7 0.2 0.7 70 2.0 WNW 19 37 10 20 995.8 995.9 3.6
 
Date/Time
EST
Temp
°C
App
Temp
°C
Dew
Point
Rel
Hum
%
Delta-T
°C
Wind Press
QNH
hPa
Press
MSL
hPa
Rain
since 9 am
mm
Dir
 
Spd
km/h
Gust
km/h
Spd
kts
Gust
kts
02/11:30pm 7.0 -0.4 -0.4 59 2.9 NW 28 54 15 29 995.6 995.7 3.6
02/11:00pm 7.0 0.0 -0.7 58 3.0 NW 26 46 14 25 995.7 995.8 3.6
02/10:30pm 6.5 1.2 -0.5 61 2.7 NW 17 43 9 23 996.3 996.4 3.6
02/10:00pm 6.0 0.2 -1.4 59 2.8 NW 19 33 10 18 996.8 996.9 3.6
02/09:30pm 5.7 0.3 -1.4 60 2.6 NW 17 33 9 18 997.4 997.5 3.6
02/09:00pm 5.7 -0.2 -0.8 63 2.5 WNW 20 35 11 19 997.8 997.9 3.6
02/08:30pm 5.8 -0.1 -0.7 63 2.5 NW 20 33 11 18 998.2 998.3 3.6
02/08:00pm 5.1 0.1 -0.9 65 2.3 WNW 15 26 8 14 998.2 998.3 3.6
02/07:30pm 5.1 0.2 -0.7 66 2.2 NW 15 30 8 16 998.4 998.5 3.6
02/07:00pm 5.2 0.0 0.2 70 1.9 NW 17 26 9 14 998.2 998.3 3.6
02/06:30pm 5.1 0.0 1.0 75 1.6 NW 17 32 9 17 997.9 998.0 3.6
02/06:00pm 4.6 0.5 2.1 84 1.0 NW 13 24 7 13 997.7 997.8 3.6
02/05:30pm 3.9 0.9 2.3 89 0.6 NW 7 13 4 7 997.3 997.4 3.6
02/05:00pm 4.3 1.0 2.7 89 0.7 WNW 9 17 5 9 996.8 996.9 3.6
02/04:30pm 5.0 1.1 3.2 88 0.7 WNW 13 20 7 11 996.6 996.7 3.6
02/04:00pm 4.6 1.0 3.1 90 0.6 W 11 19 6 10 996.3 996.4 3.6
02/03:30pm 4.5 1.0 3.5 93 0.4 W 11 20 6 11 996.5 996.6 3.6
02/03:00pm 3.4 -4.4 1.4 87 0.8 WSW 32 54 17 29 996.7 996.8 2.8
02/02:53pm 7.1 1.0 4.6 84 1.1 WNW 26 54 14 29 996.9 997.0 0.8
02/02:52pm 7.8 2.2 5.6 86 1.0 WNW 24 54 13 29 996.6 996.7 0.8
02/02:30pm 9.0 2.3 5.6 79 1.5 WNW 30 61 16 33 994.5 994.6 0.2
02/02:00pm 12.0 5.2 3.0 54 4.0 WNW 28 57 15 31 993.2 993.2 0.0
02/01:30pm 13.4 5.7 2.3 47 4.9 WNW 32 50 17 27 992.7 992.7 0.0
02/01:09pm 13.9 6.8 1.2 42 5.5 NW 28 56 15 30 993.2 993.2 0.0
02/01:00pm 14.1 7.4 1.7 43 5.5 NW 26 56 14 30 993.6 993.6 0.0
02/12:40pm 13.6 6.6 1.9 45 5.1 NW 28 52 15 28 994.1 994.2 0.0
02/12:30pm 13.5 8.0 2.1 46 5.0 NW 20 44 11 24 994.6 994.7 0.0
02/12:15pm 13.6 6.6 1.9 45 5.1 NW 28 54 15 29 995.4 995.5 0.0
02/12:00pm 13.4 7.1 1.4 44 5.2 NNW 24 46 13 25 996.0 996.1 0.0
02/11:30am 13.7 9.9 2.0 45 5.1 NW 11 26 6 14 997.1 997.2 0.0
02/11:00am 12.6 7.2 1.3 46 4.8 NNW 19 46 10 25 998.4 998.5 0.0
02/10:30am 11.6 8.2 2.1 52 4.1 NNW 9 22 5 12 999.1 999.2 0.0
02/10:00am 12.5 9.8 2.4 50 4.4 NNW 6 22 3 12 999.9 1000.0 0.0
02/09:30am 11.4 7.7 2.2 53 4.0 WNW 11 20 6 11 1000.3 1000.4 0.0
02/09:00am 10.2 5.6 1.8 56 3.6 NW 15 33 8 18 1000.8 1000.9 0.4
02/08:30am 8.9 5.0 1.1 58 3.2 NW 11 20 6 11 1001.0 1001.1 0.4
02/08:00am 8.9 5.0 1.3 59 3.1 NNW 11 20 6 11 1001.5 1001.5 0.4
02/07:30am 8.9 4.3 1.3 59 3.1 NNW 15 28 8 15 1001.8 1001.8 0.4
02/07:00am 8.4 4.5 1.1 60 3.0 N 11 22 6 12 1002.3 1002.3 0.4
02/06:30am 8.9 3.9 1.1 58 3.2 NNW 17 33 9 18 1002.5 1002.5 0.4
02/06:00am 8.3 4.4 1.0 60 3.0 NNW 11 24 6 13 1003.1 1003.1 0.4
02/05:30am 7.9 4.2 -0.1 57 3.1 N 9 24 5 13 1003.4 1003.4 0.4
02/05:00am 7.5 3.9 0.5 61 2.8 N 9 20 5 11 1003.8 1003.8 0.4
02/04:30am 7.8 4.5 0.3 59 3.0 N 7 15 4 8 1004.1 1004.1 0.4
02/04:00am 8.4 2.7 0.6 58 3.1 NW 20 39 11 21 1004.5 1004.5 0.4
02/03:30am 8.3 2.5 -0.2 55 3.3 NW 20 41 11 22 1004.8 1004.8 0.4
02/03:00am 8.3 1.6 -1.0 52 3.6 NW 24 50 13 27 1005.3 1005.3 0.4
02/02:30am 7.6 2.6 -1.4 53 3.4 NW 15 28 8 15 1005.7 1005.7 0.4
02/02:00am 8.0 2.0 -1.2 52 3.5 NW 20 41 11 22 1006.1 1006.1 0.4
02/01:30am 7.5 2.2 -0.5 57 3.1 NNW 17 37 9 20 1006.2 1006.2 0.4
02/01:00am 6.8 3.0 -0.4 60 2.8 NW 9 22 5 12 1006.8 1006.8 0.4
02/12:30am 6.1 3.2 -1.3 59 2.8 N 4 9 2 5 1007.4 1007.4 0.4
02/12:00am 6.0 2.6 -1.9 57 2.9 N 6 9 3 5 1007.6 1007.6 0.4
 
Date/Time
EST
Temp
°C
App
Temp
°C
Dew
Point
Rel
Hum
%
Delta-T
°C
Wind Press
QNH
hPa
Press
MSL
hPa
Rain
since 9 am
mm
Dir
 
Spd
km/h
Gust
km/h
Spd
kts
Gust
kts
01/11:30pm 6.4 2.9 -1.7 56 3.0 N 7 13 4 7 1008.1 1008.1 0.4
01/11:00pm 6.3 3.0 -1.6 57 2.9 NW 6 9 3 5 1008.1 1008.1 0.4
01/10:30pm 7.0 2.4 -1.4 55 3.2 NW 13 19 7 10 1008.3 1008.3 0.4
01/10:00pm 7.5 0.4 -1.2 54 3.3 NW 26 43 14 23 1008.1 1008.1 0.4
01/09:37pm 7.5 0.0 -1.4 53 3.4 NNW 28 48 15 26 1007.9 1007.9 0.4
01/09:30pm 7.5 0.4 -1.4 53 3.4 NW 26 46 14 25 1008.0 1008.0 0.4
01/09:00pm 7.5 1.2 -1.2 54 3.3 NW 22 46 12 25 1008.1 1008.1 0.4
01/08:33pm 7.7 0.3 -1.0 54 3.3 NW 28 46 15 25 1007.9 1007.9 0.4
01/08:30pm 7.7 0.6 -1.0 54 3.3 NW 26 46 14 25 1007.9 1007.9 0.4
01/08:00pm 7.4 1.7 -0.5 57 3.1 NW 19 32 10 17 1008.0 1008.0 0.4
01/07:30pm 7.1 2.6 -0.6 58 3.0 NW 13 20 7 11 1007.8 1007.8 0.4
01/07:00pm 7.4 2.8 -1.0 55 3.2 NW 13 20 7 11 1007.9 1007.9 0.4
01/06:30pm 7.9 3.3 -1.3 52 3.5 NW 13 22 7 12 1007.7 1007.7 0.4
01/06:00pm 8.3 2.2 -2.0 48 3.9 WNW 20 37 11 20 1006.8 1006.8 0.4
01/05:30pm 8.1 3.3 -2.5 47 3.9 NW 13 19 7 10 1006.7 1006.7 0.4
01/05:00pm 8.8 4.0 -2.5 45 4.2 NW 13 26 7 14 1006.4 1006.4 0.4
01/04:30pm 10.1 4.3 -4.3 36 5.2 WNW 17 33 9 18 1005.9 1005.9 0.4
01/04:00pm 10.2 5.0 -3.1 39 5.0 WSW 15 28 8 15 1005.4 1005.4 0.4
01/03:30pm 10.9 5.3 -2.8 38 5.2 WSW 17 28 9 15 1005.5 1005.5 0.4
01/03:00pm 11.4 5.4 -3.1 36 5.5 W 19 32 10 17 1005.6 1005.6 0.4
01/02:30pm 11.1 3.6 -4.5 33 5.7 WNW 26 44 14 24 1004.6 1004.6 0.4
01/02:00pm 11.5 4.4 -4.2 33 5.9 W 24 39 13 21 1004.1 1004.1 0.4
01/01:30pm 11.3 4.3 -3.6 35 5.6 W 24 35 13 19 1004.1 1004.1 0.4
01/01:00pm 10.9 4.1 -4.7 33 5.7 WSW 22 43 12 23 1003.7 1003.7 0.4
01/12:30pm 11.3 5.3 -2.8 37 5.4 WSW 19 35 10 19 1003.7 1003.7 0.4
01/12:00pm 10.7 3.9 -2.0 41 4.9 WSW 24 43 13 23 1003.6 1003.6 0.4
01/11:50am 10.6 3.0 -2.1 41 4.9 WSW 28 48 15 26 1003.5 1003.5 0.4
01/11:30am 10.3 3.7 -0.2 48 4.2 WSW 24 43 13 23 1003.4 1003.4 0.4
01/11:00am 9.1 4.1 3.5 68 2.4 W 19 35 10 19 1002.8 1002.8 0.4
01/10:30am 6.4 2.1 3.4 81 1.3 W 15 26 8 14 1002.5 1002.5 0.4
01/10:00am 8.1 1.1 3.9 75 1.8 WSW 30 52 16 28 1002.1 1002.1 0.0
01/09:57am 9.3 3.2 2.9 64 2.7 WSW 24 50 13 27 1001.8 1001.8 0.0
01/09:30am 11.2 7.2 5.1 66 2.8 W 15 28 8 15 1000.6 1000.7 0.0
01/09:00am 10.4 5.7 5.2 70 2.4 WNW 19 33 10 18 999.8 999.9 0.2
01/08:30am 9.5 4.6 5.3 75 1.9 WNW 20 35 11 19 999.2 999.3 0.2
01/08:00am 9.1 5.4 6.4 83 1.3 NW 15 30 8 16 999.0 999.1 0.2
01/07:30am 8.9 5.2 6.2 83 1.2 NW 15 28 8 15 998.7 998.8 0.0
01/07:00am 10.0 5.1 5.2 72 2.2 NW 20 43 11 23 997.9 998.0 0.0
01/06:30am 10.7 5.6 4.0 63 3.0 NW 20 39 11 21 997.5 997.6 0.0
01/06:00am 10.7 5.1 3.3 60 3.3 NW 22 44 12 24 997.6 997.7 0.0
01/05:30am 10.0 6.3 2.6 60 3.2 N 11 24 6 13 998.1 998.2 0.0

Other Formats:

Comma delimited format used in spreadsheet applications
http://www.bom.gov.au/fwo/IDT60801/IDT60801.94987.axf

JavaScript Object Notation format (JSON) in row-major order
http://www.bom.gov.au/fwo/IDT60801/IDT60801.94987.json